Terminal Aerodrome Forecast
Issued by NWS

Current Version | Previous Version | Text Only | Print | Product List | Glossary Off
Versions: 1 2 3 4 5 6 7 8 9 10 11 12 13 14 15 16 17 18 19 20 21 22 23 24 25 26 27 28 29 30

211
FTUS41 KILN 140336 AAA
TAFLUK
TAF AMD
KLUK 140336Z 1404/1424 05005KT P6SM -RA SCT020 OVC035
     FM140500 03003KT 3SM BR VCSH OVC015
     FM140900 00000KT 3SM BR VCSH OVC009
     FM141400 00000KT 2SM -RA BR OVC009
     FM141900 33003KT P6SM VCSH OVC015=

USA.gov is the U.S. government's official web portal to all federal, state and local government web resources and services.